Time,TemperatureF,DewpointF,PressureIn,WindDirection,WindDirectionDegrees,WindSpeedMPH,WindSpeedGustMPH,Humidity,HourlyPrecipIn,Conditions,Clouds,dailyrainin,SoftwareType,DateUTC
2013-05-23 00:02:00,41.2,-7.6,26.02,East,100,0.0,0.0,12,0.00,,,-99.99,VWS V12.07,2013-05-23 07:02:00,
2013-05-23 00:08:00,40.8,-7.7,26.02,East,96,0.0,0.0,12,0.00,,,-99.99,VWS V12.07,2013-05-23 07:08:00,
2013-05-23 00:14:00,40.5,-8.0,26.02,East,96,0.0,0.0,12,0.00,,,-99.99,VWS V12.07,2013-05-23 07:14:00,
2013-05-23 00:20:00,40.3,-8.3,26.02,East,96,0.0,0.0,12,0.00,,,-99.99,VWS V12.07,2013-05-23 07:20:00,
2013-05-23 00:26:00,40.3,-8.4,26.02,East,96,0.0,0.0,12,0.00,,,-99.99,VWS V12.07,2013-05-23 07:26:00,
2013-05-23 00:32:00,39.7,-8.7,26.02,East,96,0.0,0.0,12,0.00,,,-99.99,VWS V12.07,2013-05-23 07:32:00,
2013-05-23 00:38:00,39.6,-8.9,26.02,East,96,0.0,0.0,12,0.00,,,-99.99,VWS V12.07,2013-05-23 07:38:00,
2013-05-23 00:44:00,39.2,-9.1,26.02,East,96,0.0,0.0,12,0.00,,,-99.99,VWS V12.07,2013-05-23 07:44:00,
2013-05-23 00:50:00,39.2,-9.3,26.02,East,96,0.0,0.0,12,0.00,,,-99.99,VWS V12.07,2013-05-23 07:50:00,
2013-05-23 00:56:00,39.2,-9.1,26.02,East,96,0.0,0.0,12,0.00,,,-99.99,VWS V12.07,2013-05-23 07:56:00,
2013-05-23 01:02:00,38.8,-9.4,26.02,East,96,0.0,0.0,12,0.00,,,-99.99,VWS V12.07,2013-05-23 08:02:00,
2013-05-23 01:08:00,38.1,-10.0,26.02,East,96,0.0,0.0,12,0.00,,,-99.99,VWS V12.07,2013-05-23 08:08:00,
2013-05-23 01:14:00,38.1,-10.0,26.02,East,96,0.0,0.0,12,0.00,,,-99.99,VWS V12.07,2013-05-23 08:14:00,
2013-05-23 01:20:00,37.9,-10.1,26.02,East,96,0.0,0.0,12,0.00,,,-99.99,VWS V12.07,2013-05-23 08:20:00,
2013-05-23 01:26:00,37.6,-10.4,26.02,East,96,0.0,0.0,12,0.00,,,-99.99,VWS V12.07,2013-05-23 08:26:00,
2013-05-23 01:32:00,37.2,-10.6,26.02,East,96,0.0,0.0,12,0.00,,,-99.99,VWS V12.07,2013-05-23 08:32:00,
2013-05-23 01:38:00,36.9,-11.1,26.02,East,96,0.0,0.0,12,0.00,,,-99.99,VWS V12.07,2013-05-23 08:38:00,
2013-05-23 01:44:00,36.1,-11.4,26.02,East,96,0.0,0.0,12,0.00,,,-99.99,VWS V12.07,2013-05-23 08:44:00,
2013-05-23 01:50:00,36.3,-11.4,26.02,East,96,0.0,0.0,12,0.00,,,-99.99,VWS V12.07,2013-05-23 08:50:00,
2013-05-23 01:56:00,36.3,-11.4,26.02,East,96,0.0,0.0,12,0.00,,,-99.99,VWS V12.07,2013-05-23 08:56:00,
2013-05-23 02:02:00,36.1,-11.6,26.02,East,96,0.0,0.0,12,0.00,,,-99.99,VWS V12.07,2013-05-23 09:02:00,
2013-05-23 02:08:00,36.3,-11.4,26.02,East,96,0.0,0.0,12,0.00,,,-99.99,VWS V12.07,2013-05-23 09:08:00,
2013-05-23 02:14:00,36.1,-11.4,26.02,East,96,0.0,0.0,12,0.00,,,-99.99,VWS V12.07,2013-05-23 09:14:00,
2013-05-23 02:20:00,36.0,-11.9,26.02,East,96,0.0,0.0,12,0.00,,,-99.99,VWS V12.07,2013-05-23 09:20:00,
2013-05-23 02:26:00,36.1,-11.6,26.02,East,96,0.0,0.0,12,0.00,,,-99.99,VWS V12.07,2013-05-23 09:26:00,
2013-05-23 02:32:00,36.0,-11.9,26.02,East,96,0.0,0.0,12,0.00,,,-99.99,VWS V12.07,2013-05-23 09:32:00,
2013-05-23 02:38:00,35.6,-12.0,26.02,East,96,0.0,0.0,12,0.00,,,-99.99,VWS V12.07,2013-05-23 09:38:00,
2013-05-23 02:44:00,35.6,-11.9,26.02,East,96,0.0,0.0,12,0.00,,,-99.99,VWS V12.07,2013-05-23 09:44:00,
2013-05-23 02:50:00,35.4,-12.1,26.02,East,96,0.0,0.0,12,0.00,,,-99.99,VWS V12.07,2013-05-23 09:50:00,
2013-05-23 02:56:00,35.6,-12.1,26.02,East,96,0.0,0.0,12,0.00,,,-99.99,VWS V12.07,2013-05-23 09:56:00,
2013-05-23 03:02:00,35.1,-12.4,26.02,East,96,0.0,0.0,12,0.00,,,-99.99,VWS V12.07,2013-05-23 10:02:00,
2013-05-23 03:08:00,35.2,-12.4,26.02,East,96,0.0,0.0,12,0.00,,,-99.99,VWS V12.07,2013-05-23 10:08:00,
2013-05-23 03:14:00,35.4,-12.1,26.02,East,96,0.0,0.0,12,0.00,,,-99.99,VWS V12.07,2013-05-23 10:14:00,
2013-05-23 03:20:00,35.1,-12.3,26.02,East,96,0.0,0.0,12,0.00,,,-99.99,VWS V12.07,2013-05-23 10:20:00,
2013-05-23 03:26:00,34.9,-12.6,26.02,East,96,0.0,0.0,12,0.00,,,-99.99,VWS V12.07,2013-05-23 10:26:00,
2013-05-23 03:32:00,34.7,-12.7,26.02,SE,131,0.0,0.0,12,0.00,,,-99.99,VWS V12.07,2013-05-23 10:32:00,
2013-05-23 03:38:00,34.5,-12.9,26.02,SE,131,0.0,0.0,12,0.00,,,-99.99,VWS V12.07,2013-05-23 10:38:00,
2013-05-23 03:44:00,34.3,-13.0,26.02,SE,135,0.0,0.0,12,0.00,,,-99.99,VWS V12.07,2013-05-23 10:44:00,
2013-05-23 03:50:00,34.3,-13.0,26.02,SE,135,0.0,0.0,12,0.00,,,-99.99,VWS V12.07,2013-05-23 10:50:00,
2013-05-23 03:56:00,34.3,-13.0,26.02,SE,135,0.0,0.0,12,0.00,,,-99.99,VWS V12.07,2013-05-23 10:56:00,
2013-05-23 04:02:00,34.3,-12.9,26.02,SE,135,0.0,0.0,12,0.00,,,-99.99,VWS V12.07,2013-05-23 11:02:00,
2013-05-23 04:08:00,34.5,-13.0,26.02,SE,135,0.0,0.0,12,0.00,,,-99.99,VWS V12.07,2013-05-23 11:08:00,
2013-05-23 04:14:00,34.3,-13.0,26.02,SE,135,0.0,0.0,12,0.00,,,-99.99,VWS V12.07,2013-05-23 11:14:00,
2013-05-23 04:20:00,34.5,-12.9,26.02,SE,135,0.0,0.0,12,0.00,,,-99.99,VWS V12.07,2013-05-23 11:20:00,
2013-05-23 04:26:00,34.3,-13.0,26.02,SE,135,0.0,0.0,12,0.00,,,-99.99,VWS V12.07,2013-05-23 11:26:00,
2013-05-23 04:32:00,34.5,-12.9,26.02,SE,135,0.0,0.0,12,0.00,,,-99.99,VWS V12.07,2013-05-23 11:32:00,
2013-05-23 04:38:00,34.3,-13.0,26.02,SE,135,0.0,0.0,12,0.00,,,-99.99,VWS V12.07,2013-05-23 11:38:00,
2013-05-23 04:44:00,34.2,-13.0,26.02,ENE,72,0.0,0.0,12,0.00,,,-99.99,VWS V12.07,2013-05-23 11:44:00,
2013-05-23 04:50:00,34.0,-13.1,26.02,ENE,72,0.0,0.0,12,0.00,,,-99.99,VWS V12.07,2013-05-23 11:50:00,
2013-05-23 04:56:00,34.0,-13.3,26.02,ENE,72,0.0,0.0,12,0.00,,,-99.99,VWS V12.07,2013-05-23 11:56:00,
2013-05-23 05:02:00,34.3,-13.3,26.02,ENE,72,0.0,0.0,12,0.00,,,-99.99,VWS V12.07,2013-05-23 12:02:00,
2013-05-23 05:08:00,34.2,-13.1,26.02,ENE,72,0.0,0.0,12,0.00,,,-99.99,VWS V12.07,2013-05-23 12:08:00,
2013-05-23 05:14:00,34.0,-13.3,26.02,ENE,72,0.0,0.0,12,0.00,,,-99.99,VWS V12.07,2013-05-23 12:14:00,
2013-05-23 05:20:00,34.0,-13.3,26.02,ENE,72,0.0,0.0,12,0.00,,,-99.99,VWS V12.07,2013-05-23 12:20:00,
2013-05-23 05:26:00,33.8,-13.4,26.02,ENE,72,0.0,0.0,12,0.00,,,-99.99,VWS V12.07,2013-05-23 12:26:00,
2013-05-23 05:32:00,34.0,-13.4,26.02,ENE,72,0.0,0.0,12,0.00,,,-99.99,VWS V12.07,2013-05-23 12:32:00,
2013-05-23 05:38:00,34.0,-13.4,26.02,ENE,72,0.0,0.0,12,0.00,,,-99.99,VWS V12.07,2013-05-23 12:38:00,
2013-05-23 05:44:00,33.8,-13.4,26.02,ENE,72,0.0,0.0,12,0.00,,,-99.99,VWS V12.07,2013-05-23 12:44:00,
2013-05-23 05:50:00,33.6,-13.6,26.02,East,83,0.0,0.0,12,0.00,,,-99.99,VWS V12.07,2013-05-23 12:50:00,
2013-05-23 05:56:00,33.6,-13.6,26.02,East,83,0.0,0.0,12,0.00,,,-99.99,VWS V12.07,2013-05-23 12:56:00,
2013-05-23 06:02:00,33.6,-13.6,26.02,East,90,0.0,0.0,12,0.00,,,-99.99,VWS V12.07,2013-05-23 13:02:00,
2013-05-23 06:08:00,33.6,-13.6,26.02,East,90,0.0,0.0,12,0.00,,,-99.99,VWS V12.07,2013-05-23 13:08:00,
2013-05-23 06:14:00,33.6,-13.6,26.05,East,90,0.0,0.0,12,0.00,,,-99.99,VWS V12.07,2013-05-23 13:14:00,
2013-05-23 06:20:00,33.4,-13.6,26.05,East,90,0.0,0.0,12,0.00,,,-99.99,VWS V12.07,2013-05-23 13:20:00,
2013-05-23 06:26:00,33.8,-13.6,26.05,East,90,0.0,0.0,12,0.00,,,-99.99,VWS V12.07,2013-05-23 13:26:00,
2013-05-23 06:32:00,33.6,-13.4,26.05,East,90,0.0,0.0,12,0.00,,,-99.99,VWS V12.07,2013-05-23 13:32:00,
2013-05-23 06:38:00,33.6,-13.4,26.05,East,90,0.0,0.0,12,0.00,,,-99.99,VWS V12.07,2013-05-23 13:38:00,
2013-05-23 06:44:00,34.2,-13.1,26.05,East,90,0.0,0.0,12,0.00,,,-99.99,VWS V12.07,2013-05-23 13:44:00,
2013-05-23 06:50:00,35.1,-12.9,26.05,East,90,0.0,0.0,12,0.00,,,-99.99,VWS V12.07,2013-05-23 13:50:00,
2013-05-23 06:56:00,36.3,-11.6,26.05,East,90,0.0,0.0,12,0.00,,,-99.99,VWS V12.07,2013-05-23 13:56:00,
2013-05-23 07:02:00,37.6,-11.0,26.05,East,90,0.0,0.0,12,0.00,,,-99.99,VWS V12.07,2013-05-23 14:02:00,
2013-05-23 07:08:00,38.1,-10.0,26.05,East,90,0.0,0.0,12,0.00,,,-99.99,VWS V12.07,2013-05-23 14:08:00,
2013-05-23 07:14:00,39.2,-9.3,26.05,East,90,0.0,0.0,12,0.00,,,-99.99,VWS V12.07,2013-05-23 14:14:00,
2013-05-23 07:20:00,39.9,-8.6,26.05,East,90,0.0,0.0,12,0.00,,,-99.99,VWS V12.07,2013-05-23 14:20:00,
2013-05-23 07:26:00,40.6,-8.0,26.05,East,90,0.0,0.0,12,0.00,,,-99.99,VWS V12.07,2013-05-23 14:26:00,
2013-05-23 07:32:00,41.5,-7.4,26.05,East,90,0.0,0.0,12,0.00,,,-99.99,VWS V12.07,2013-05-23 14:32:00,
2013-05-23 07:38:00,42.8,-6.4,26.05,East,90,0.0,0.0,12,0.00,,,-99.99,VWS V12.07,2013-05-23 14:38:00,
2013-05-23 07:44:00,44.1,-5.4,26.05,East,90,0.0,0.0,12,0.00,,,-99.99,VWS V12.07,2013-05-23 14:44:00,
2013-05-23 07:50:00,45.3,-4.3,26.05,East,90,0.0,0.0,12,0.00,,,-99.99,VWS V12.07,2013-05-23 14:50:00,
2013-05-23 07:56:00,46.4,-3.4,26.05,East,90,0.0,0.0,12,0.00,,,-99.99,VWS V12.07,2013-05-23 14:56:00,
2013-05-23 08:02:00,47.5,-2.9,26.05,East,90,0.0,0.0,12,0.00,,,-99.99,VWS V12.07,2013-05-23 15:02:00,
2013-05-23 08:08:00,48.7,-1.5,26.05,East,90,0.0,0.0,12,0.00,,,-99.99,VWS V12.07,2013-05-23 15:08:00,
2013-05-23 08:14:00,50.2,-0.3,26.05,ESE,113,0.0,0.0,12,0.00,,,-99.99,VWS V12.07,2013-05-23 15:14:00,
2013-05-23 08:20:00,52.2,1.0,26.05,ESE,113,0.0,0.0,12,0.00,,,-99.99,VWS V12.07,2013-05-23 15:20:00,
2013-05-23 08:26:00,54.5,3.1,26.05,ESE,113,0.0,0.0,12,0.00,,,-99.99,VWS V12.07,2013-05-23 15:26:00,
2013-05-23 08:32:00,56.1,4.5,26.05,ESE,110,0.0,4.0,12,0.00,,,-99.99,VWS V12.07,2013-05-23 15:32:00,
2013-05-23 08:38:00,57.2,5.3,26.05,SSW,197,4.3,4.3,12,0.00,,,-99.99,VWS V12.07,2013-05-23 15:38:00,
2013-05-23 08:44:00,58.6,6.3,26.05,WSW,251,0.0,3.6,12,0.00,,,-99.99,VWS V12.07,2013-05-23 15:44:00,
2013-05-23 08:50:00,59.2,6.8,26.05,WSW,237,0.0,3.6,12,0.00,,,-99.99,VWS V12.07,2013-05-23 15:50:00,
2013-05-23 08:56:00,60.4,7.5,26.05,SW,226,4.8,4.8,12,0.00,,,-99.99,VWS V12.07,2013-05-23 15:56:00,
2013-05-23 09:02:00,60.6,7.8,26.05,WSW,239,6.4,6.4,12,0.00,,,-99.99,VWS V12.07,2013-05-23 16:02:00,
2013-05-23 09:08:00,61.0,8.2,26.05,SW,230,0.0,5.8,12,0.00,,,-99.99,VWS V12.07,2013-05-23 16:08:00,
2013-05-23 09:14:00,61.5,8.5,26.05,West,275,0.0,5.8,12,0.00,,,-99.99,VWS V12.07,2013-05-23 16:14:00,
2013-05-23 09:20:00,61.7,8.7,26.05,WSW,239,0.0,5.8,12,0.00,,,-99.99,VWS V12.07,2013-05-23 16:20:00,
2013-05-23 09:26:00,62.2,9.0,26.05,SW,229,4.3,4.3,12,0.00,,,-99.99,VWS V12.07,2013-05-23 16:26:00,
2013-05-23 09:32:00,62.2,9.0,26.05,West,275,0.0,5.4,12,0.00,,,-99.99,VWS V12.07,2013-05-23 16:32:00,
2013-05-23 09:38:00,62.4,9.0,26.05,West,276,4.3,5.4,12,0.00,,,-99.99,VWS V12.07,2013-05-23 16:38:00,
2013-05-23 09:44:00,62.2,9.0,26.05,SSW,212,6.4,6.7,12,0.00,,,-99.99,VWS V12.07,2013-05-23 16:44:00,
2013-05-23 09:50:00,62.8,9.4,26.05,WSW,257,6.4,8.1,12,0.00,,,-99.99,VWS V12.07,2013-05-23 16:50:00,
2013-05-23 09:56:00,62.8,9.6,26.07,WSW,252,4.8,8.3,12,0.00,,,-99.99,VWS V12.07,2013-05-23 16:56:00,
2013-05-23 10:02:00,63.3,9.9,26.07,WSW,258,3.2,8.7,12,0.00,,,-99.99,VWS V12.07,2013-05-23 17:02:00,
2013-05-23 10:08:00,63.1,9.7,26.07,WSW,252,6.4,8.7,12,0.00,,,-99.99,VWS V12.07,2013-05-23 17:08:00,
2013-05-23 10:14:00,63.5,10.0,26.07,West,266,7.5,8.7,12,0.00,,,-99.99,VWS V12.07,2013-05-23 17:14:00,
2013-05-23 10:20:00,64.0,10.6,26.07,SW,228,7.0,8.7,12,0.00,,,-99.99,VWS V12.07,2013-05-23 17:20:00,
2013-05-23 10:26:00,64.4,10.6,26.07,SW,224,7.5,8.3,12,0.00,,,-99.99,VWS V12.07,2013-05-23 17:26:00,
2013-05-23 10:32:00,65.1,11.1,26.07,SW,219,9.1,10.1,12,0.00,,,-99.99,VWS V12.07,2013-05-23 17:32:00,
2013-05-23 10:38:00,65.5,11.7,26.07,SW,215,4.3,12.3,12,0.00,,,-99.99,VWS V12.07,2013-05-23 17:38:00,
2013-05-23 10:44:00,66.6,12.3,26.07,WNW,283,4.8,7.6,12,0.00,,,-99.99,VWS V12.07,2013-05-23 17:44:00,
2013-05-23 10:50:00,67.6,13.1,26.07,WSW,252,7.0,7.6,12,0.00,,,-99.99,VWS V12.07,2013-05-23 17:50:00,
2013-05-23 10:56:00,68.2,13.9,26.07,SSW,206,3.2,12.3,12,0.00,,,-99.99,VWS V12.07,2013-05-23 17:56:00,
2013-05-23 11:02:00,69.1,14.2,26.07,West,265,3.8,4.9,12,0.00,,,-99.99,VWS V12.07,2013-05-23 18:02:00,
2013-05-23 11:08:00,69.8,15.2,26.07,West,260,4.3,7.6,12,0.00,,,-99.99,VWS V12.07,2013-05-23 18:08:00,
2013-05-23 11:14:00,70.9,15.8,26.07,WSW,240,4.8,7.6,12,0.00,,,-99.99,VWS V12.07,2013-05-23 18:14:00,
2013-05-23 11:20:00,71.4,16.1,26.07,West,261,7.0,7.6,12,0.00,,,-99.99,VWS V12.07,2013-05-23 18:20:00,
2013-05-23 11:26:00,70.2,15.8,26.07,SW,228,4.3,8.7,12,0.00,,,-99.99,VWS V12.07,2013-05-23 18:26:00,
2013-05-23 11:32:00,71.6,16.3,26.07,West,269,0.0,8.7,12,0.00,,,-99.99,VWS V12.07,2013-05-23 18:32:00,
2013-05-23 11:38:00,71.1,16.2,26.07,WSW,244,3.2,8.7,12,0.00,,,-99.99,VWS V12.07,2013-05-23 18:38:00,
2013-05-23 11:44:00,71.2,16.2,26.07,SW,233,9.1,9.1,12,0.00,,,-99.99,VWS V12.07,2013-05-23 18:44:00,
2013-05-23 11:50:00,70.7,15.9,26.07,WSW,249,7.5,8.1,12,0.00,,,-99.99,VWS V12.07,2013-05-23 18:50:00,
2013-05-23 11:56:00,71.6,16.2,26.07,SW,235,2.7,10.5,12,0.00,,,-99.99,VWS V12.07,2013-05-23 18:56:00,
2013-05-23 12:02:00,70.3,15.5,26.07,NW,305,7.0,7.0,12,0.00,,,-99.99,VWS V12.07,2013-05-23 19:02:00,
2013-05-23 12:08:00,70.3,15.5,26.07,West,268,9.9,9.9,12,0.00,,,-99.99,VWS V12.07,2013-05-23 19:08:00,
2013-05-23 12:14:00,70.3,15.5,26.07,WNW,288,0.0,11.4,12,0.00,,,-99.99,VWS V12.07,2013-05-23 19:14:00,
2013-05-23 12:20:00,70.7,15.9,26.07,NW,306,4.8,4.8,12,0.00,,,-99.99,VWS V12.07,2013-05-23 19:20:00,
2013-05-23 12:26:00,71.4,15.9,26.07,WNW,284,2.7,6.3,12,0.00,,,-99.99,VWS V12.07,2013-05-23 19:26:00,
2013-05-23 12:32:00,70.2,15.1,26.07,NW,313,4.8,6.7,12,0.00,,,-99.99,VWS V12.07,2013-05-23 19:32:00,
2013-05-23 12:38:00,70.0,14.9,26.07,WSW,257,5.9,7.6,12,0.00,,,-99.99,VWS V12.07,2013-05-23 19:38:00,
2013-05-23 12:44:00,70.0,15.2,26.07,SW,217,4.8,8.1,12,0.00,,,-99.99,VWS V12.07,2013-05-23 19:44:00,
2013-05-23 12:50:00,70.7,15.9,26.07,SW,228,7.5,10.5,12,0.00,,,-99.99,VWS V12.07,2013-05-23 19:50:00,
2013-05-23 12:56:00,70.7,15.6,26.07,West,269,3.2,10.5,12,0.00,,,-99.99,VWS V12.07,2013-05-23 19:56:00,
2013-05-23 13:02:00,70.0,15.1,26.07,SW,236,7.5,7.6,12,0.00,,,-99.99,VWS V12.07,2013-05-23 20:02:00,
2013-05-23 13:08:00,70.2,15.2,26.07,WSW,247,7.0,10.1,12,0.00,,,-99.99,VWS V12.07,2013-05-23 20:08:00,
2013-05-23 13:14:00,69.8,14.8,26.07,SW,233,6.4,10.1,12,0.00,,,-99.99,VWS V12.07,2013-05-23 20:14:00,
2013-05-23 13:20:00,70.5,15.6,26.07,SW,229,8.6,8.6,12,0.00,,,-99.99,VWS V12.07,2013-05-23 20:20:00,
2013-05-23 13:26:00,70.3,15.2,26.07,SW,232,4.8,8.3,12,0.00,,,-99.99,VWS V12.07,2013-05-23 20:26:00,
2013-05-23 13:32:00,71.2,16.1,26.07,SW,232,3.2,8.3,12,0.00,,,-99.99,VWS V12.07,2013-05-23 20:32:00,
2013-05-23 13:38:00,71.2,15.8,26.07,WSW,240,6.4,10.5,12,0.00,,,-99.99,VWS V12.07,2013-05-23 20:38:00,
2013-05-23 13:44:00,71.4,16.2,26.07,West,272,0.0,6.3,12,0.00,,,-99.99,VWS V12.07,2013-05-23 20:44:00,
2013-05-23 13:50:00,72.0,16.8,26.07,WSW,249,4.3,6.3,12,0.00,,,-99.99,VWS V12.07,2013-05-23 20:50:00,
2013-05-23 13:56:00,71.6,16.3,26.07,SW,221,7.5,8.3,12,0.00,,,-99.99,VWS V12.07,2013-05-23 20:56:00,
2013-05-23 14:02:00,71.2,16.2,26.07,SSW,207,6.4,8.7,12,0.00,,,-99.99,VWS V12.07,2013-05-23 21:02:00,
2013-05-23 14:08:00,71.4,16.2,26.07,SW,216,7.0,11.0,12,0.00,,,-99.99,VWS V12.07,2013-05-23 21:08:00,
2013-05-23 14:14:00,71.6,16.2,26.07,West,266,5.9,11.0,12,0.00,,,-99.99,VWS V12.07,2013-05-23 21:14:00,
2013-05-23 14:20:00,71.2,15.8,26.07,West,268,4.3,11.0,12,0.00,,,-99.99,VWS V12.07,2013-05-23 21:20:00,
2013-05-23 14:26:00,71.6,16.2,26.07,SW,219,6.4,12.8,12,0.00,,,-99.99,VWS V12.07,2013-05-23 21:26:00,
2013-05-23 14:32:00,71.4,16.2,26.07,West,265,0.0,12.8,12,0.00,,,-99.99,VWS V12.07,2013-05-23 21:32:00,
2013-05-23 14:38:00,71.8,16.3,26.07,SW,232,4.3,12.8,12,0.00,,,-99.99,VWS V12.07,2013-05-23 21:38:00,
2013-05-23 14:44:00,72.5,16.8,26.07,WNW,297,6.4,7.6,12,0.00,,,-99.99,VWS V12.07,2013-05-23 21:44:00,
2013-05-23 14:50:00,71.1,15.9,26.07,WNW,301,7.5,7.6,12,0.00,,,-99.99,VWS V12.07,2013-05-23 21:50:00,
2013-05-23 14:56:00,71.1,16.1,26.05,West,260,3.8,7.6,12,0.00,,,-99.99,VWS V12.07,2013-05-23 21:56:00,
2013-05-23 15:02:00,71.4,16.3,26.05,WNW,297,4.8,7.6,12,0.00,,,-99.99,VWS V12.07,2013-05-23 22:02:00,
2013-05-23 15:08:00,72.0,16.5,26.05,WNW,293,4.8,7.6,12,0.00,,,-99.99,VWS V12.07,2013-05-23 22:08:00,
2013-05-23 15:14:00,73.0,17.5,26.07,West,276,6.4,7.6,12,0.00,,,-99.99,VWS V12.07,2013-05-23 22:14:00,
2013-05-23 15:20:00,72.9,17.6,26.07,West,278,6.4,8.3,12,0.00,,,-99.99,VWS V12.07,2013-05-23 22:20:00,
2013-05-23 15:26:00,72.1,16.8,26.07,NW,306,3.2,6.3,12,0.00,,,-99.99,VWS V12.07,2013-05-23 22:26:00,
2013-05-23 15:32:00,73.2,17.5,26.07,WSW,256,6.4,6.4,12,0.00,,,-99.99,VWS V12.07,2013-05-23 22:32:00,
2013-05-23 15:38:00,73.0,17.3,26.07,WNW,283,4.3,6.3,12,0.00,,,-99.99,VWS V12.07,2013-05-23 22:38:00,
2013-05-23 15:44:00,73.6,17.7,26.07,WNW,282,6.4,6.4,12,0.00,,,-99.99,VWS V12.07,2013-05-23 22:44:00,
2013-05-23 15:50:00,73.0,17.3,26.07,WNW,298,4.3,8.3,12,0.00,,,-99.99,VWS V12.07,2013-05-23 22:50:00,
2013-05-23 15:56:00,72.9,17.3,26.07,WNW,285,6.4,8.3,12,0.00,,,-99.99,VWS V12.07,2013-05-23 22:56:00,
2013-05-23 16:02:00,73.2,17.7,26.07,WSW,258,6.4,6.4,12,0.00,,,-99.99,VWS V12.07,2013-05-23 23:02:00,
2013-05-23 16:08:00,74.3,18.0,26.07,WNW,300,3.2,5.4,12,0.00,,,-99.99,VWS V12.07,2013-05-23 23:08:00,
2013-05-23 16:14:00,74.1,18.6,26.07,West,260,4.8,8.7,12,0.00,,,-99.99,VWS V12.07,2013-05-23 23:14:00,
2013-05-23 16:20:00,77.0,20.7,26.07,WSW,252,4.8,8.7,12,0.00,,,-99.99,VWS V12.07,2013-05-23 23:20:00,
2013-05-23 16:26:00,78.3,21.4,26.07,West,264,4.8,6.3,12,0.00,,,-99.99,VWS V12.07,2013-05-23 23:26:00,
2013-05-23 16:32:00,77.5,20.8,26.07,North,353,3.8,6.3,12,0.00,,,-99.99,VWS V12.07,2013-05-23 23:32:00,
2013-05-23 16:38:00,78.1,21.5,26.07,West,259,4.3,6.3,12,0.00,,,-99.99,VWS V12.07,2013-05-23 23:38:00,
2013-05-23 16:44:00,77.5,20.8,26.07,West,262,0.0,8.1,12,0.00,,,-99.99,VWS V12.07,2013-05-23 23:44:00,
2013-05-23 16:50:00,76.5,20.1,26.07,WNW,296,4.3,8.1,12,0.00,,,-99.99,VWS V12.07,2013-05-23 23:50:00,
2013-05-23 16:56:00,77.2,20.7,26.07,West,275,3.8,8.1,12,0.00,,,-99.99,VWS V12.07,2013-05-23 23:56:00,
2013-05-23 17:02:00,77.4,21.0,26.07,WNW,284,0.0,3.6,12,0.00,,,-99.99,VWS V12.07,2013-05-24 00:02:00,
2013-05-23 17:08:00,76.3,20.1,26.07,WNW,285,4.8,5.4,12,0.00,,,-99.99,VWS V12.07,2013-05-24 00:08:00,
2013-05-23 17:14:00,77.0,20.4,26.07,WNW,298,0.0,5.4,12,0.00,,,-99.99,VWS V12.07,2013-05-24 00:14:00,
2013-05-23 17:20:00,76.5,20.3,26.07,West,279,2.7,2.7,12,0.00,,,-99.99,VWS V12.07,2013-05-24 00:20:00,
2013-05-23 17:26:00,72.0,16.5,26.07,West,276,4.8,4.9,12,0.00,,,-99.99,VWS V12.07,2013-05-24 00:26:00,
2013-05-23 17:32:00,70.0,15.1,26.07,West,280,0.0,4.9,12,0.00,,,-99.99,VWS V12.07,2013-05-24 00:32:00,
2013-05-23 17:38:00,71.8,16.1,26.07,West,274,3.2,4.9,12,0.00,,,-99.99,VWS V12.07,2013-05-24 00:38:00,
2013-05-23 17:44:00,74.7,18.3,26.07,West,262,4.8,4.8,12,0.00,,,-99.99,VWS V12.07,2013-05-24 00:44:00,
2013-05-23 17:50:00,75.7,19.9,26.07,WNW,296,3.2,4.9,12,0.00,,,-99.99,VWS V12.07,2013-05-24 00:50:00,
2013-05-23 17:56:00,75.9,19.6,26.07,West,275,0.0,4.9,12,0.00,,,-99.99,VWS V12.07,2013-05-24 00:56:00,
2013-05-23 18:02:00,75.2,19.1,26.07,WSW,254,3.2,4.0,12,0.00,,,-99.99,VWS V12.07,2013-05-24 01:02:00,
2013-05-23 18:08:00,73.9,18.3,26.07,WNW,291,0.0,4.0,12,0.00,,,-99.99,VWS V12.07,2013-05-24 01:08:00,
2013-05-23 18:14:00,75.0,19.0,26.07,West,261,0.0,4.0,12,0.00,,,-99.99,VWS V12.07,2013-05-24 01:14:00,
2013-05-23 18:20:00,70.5,16.6,26.07,West,267,2.7,4.0,12,0.00,,,-99.99,VWS V12.07,2013-05-24 01:20:00,
2013-05-23 18:26:00,66.6,12.8,26.07,West,267,0.0,3.1,12,0.00,,,-99.99,VWS V12.07,2013-05-24 01:26:00,
2013-05-23 18:32:00,65.3,11.6,26.07,WNW,284,0.0,3.1,12,0.00,,,-99.99,VWS V12.07,2013-05-24 01:32:00,
2013-05-23 18:38:00,63.5,9.7,26.07,West,272,0.0,3.1,12,0.00,,,-99.99,VWS V12.07,2013-05-24 01:38:00,
2013-05-23 18:44:00,62.6,9.3,26.05,West,280,4.3,4.3,12,0.00,,,-99.99,VWS V12.07,2013-05-24 01:44:00,
2013-05-23 18:50:00,62.2,9.0,26.05,West,270,0.0,3.6,12,0.00,,,-99.99,VWS V12.07,2013-05-24 01:50:00,
2013-05-23 18:56:00,61.3,8.6,26.07,WNW,302,0.0,3.6,12,0.00,,,-99.99,VWS V12.07,2013-05-24 01:56:00,
2013-05-23 19:02:00,61.3,8.3,26.07,NW,324,0.0,0.0,12,0.00,,,-99.99,VWS V12.07,2013-05-24 02:02:00,
2013-05-23 19:08:00,60.4,8.3,26.07,WNW,284,0.0,0.0,12,0.00,,,-99.99,VWS V12.07,2013-05-24 02:08:00,
2013-05-23 19:14:00,59.7,7.3,26.07,West,270,0.0,3.1,12,0.00,,,-99.99,VWS V12.07,2013-05-24 02:14:00,
2013-05-23 19:20:00,59.4,6.9,26.07,West,265,0.0,3.1,12,0.00,,,-99.99,VWS V12.07,2013-05-24 02:20:00,
2013-05-23 19:26:00,58.1,5.6,26.07,West,260,0.0,0.0,12,0.00,,,-99.99,VWS V12.07,2013-05-24 02:26:00,
2013-05-23 19:32:00,57.2,4.9,26.07,West,260,0.0,0.0,12,0.00,,,-99.99,VWS V12.07,2013-05-24 02:32:00,
2013-05-23 19:38:00,56.3,4.4,26.07,West,260,0.0,0.0,12,0.00,,,-99.99,VWS V12.07,2013-05-24 02:38:00,
2013-05-23 19:44:00,55.9,4.1,26.07,West,260,0.0,0.0,12,0.00,,,-99.99,VWS V12.07,2013-05-24 02:44:00,
2013-05-23 19:50:00,55.4,3.7,26.07,NW,323,0.0,0.0,12,0.00,,,-99.99,VWS V12.07,2013-05-24 02:50:00,
2013-05-23 19:56:00,54.9,3.4,26.07,NW,322,0.0,0.0,12,0.00,,,-99.99,VWS V12.07,2013-05-24 02:56:00,
2013-05-23 20:02:00,54.5,2.9,26.07,North,351,0.0,0.0,12,0.00,,,-99.99,VWS V12.07,2013-05-24 03:02:00,
2013-05-23 20:08:00,54.1,2.7,26.07,North,351,0.0,0.0,12,0.00,,,-99.99,VWS V12.07,2013-05-24 03:08:00,
2013-05-23 20:14:00,53.6,2.2,26.07,North,351,0.0,0.0,12,0.00,,,-99.99,VWS V12.07,2013-05-24 03:14:00,
2013-05-23 20:20:00,53.2,2.1,26.07,North,351,0.0,0.0,12,0.00,,,-99.99,VWS V12.07,2013-05-24 03:20:00,
2013-05-23 20:26:00,52.2,1.2,26.07,North,351,0.0,0.0,12,0.00,,,-99.99,VWS V12.07,2013-05-24 03:26:00,
2013-05-23 20:32:00,51.6,0.7,26.07,North,351,0.0,0.0,12,0.00,,,-99.99,VWS V12.07,2013-05-24 03:32:00,
2013-05-23 20:38:00,51.4,0.7,26.07,North,351,0.0,0.0,12,0.00,,,-99.99,VWS V12.07,2013-05-24 03:38:00,
2013-05-23 20:44:00,51.1,0.2,26.07,North,351,0.0,0.0,12,0.00,,,-99.99,VWS V12.07,2013-05-24 03:44:00,
2013-05-23 20:50:00,50.7,-0.2,26.07,North,351,0.0,0.0,12,0.00,,,-99.99,VWS V12.07,2013-05-24 03:50:00,
2013-05-23 20:56:00,50.0,-0.5,26.07,North,351,0.0,0.0,12,0.00,,,-99.99,VWS V12.07,2013-05-24 03:56:00,
2013-05-23 21:02:00,49.6,-0.9,26.07,North,351,0.0,0.0,12,0.00,,,-99.99,VWS V12.07,2013-05-24 04:02:00,
2013-05-23 21:06:00,49.5,-1.0,26.07,North,351,0.0,0.0,12,0.00,,,-99.99,VWS V12.07,2013-05-24 04:06:00,
2013-05-23 21:12:00,49.3,-1.0,26.07,North,351,0.0,0.0,12,0.00,,,-99.99,VWS V12.07,2013-05-24 04:12:00,
2013-05-23 21:14:00,49.1,-1.0,26.07,North,351,0.0,0.0,12,0.00,,,-99.99,VWS V12.07,2013-05-24 04:14:00,
2013-05-23 21:20:00,48.7,-1.5,26.07,North,351,0.0,0.0,12,0.00,,,-99.99,VWS V12.07,2013-05-24 04:20:00,
2013-05-23 21:26:00,48.2,-2.0,26.07,North,351,0.0,0.0,12,0.00,,,-99.99,VWS V12.07,2013-05-24 04:26:00,
2013-05-23 21:32:00,47.7,-2.5,26.07,SSE,163,0.0,0.0,12,0.00,,,-99.99,VWS V12.07,2013-05-24 04:32:00,
2013-05-23 21:38:00,47.3,-2.7,26.07,SSE,163,0.0,0.0,12,0.00,,,-99.99,VWS V12.07,2013-05-24 04:38:00,
2013-05-23 21:44:00,46.8,-3.2,26.10,SSE,163,0.0,0.0,12,0.00,,,-99.99,VWS V12.07,2013-05-24 04:44:00,
2013-05-23 21:50:00,46.8,-3.2,26.10,SSE,163,0.0,0.0,12,0.00,,,-99.99,VWS V12.07,2013-05-24 04:50:00,
2013-05-23 21:56:00,46.4,-3.3,26.10,SSE,163,0.0,0.0,12,0.00,,,-99.99,VWS V12.07,2013-05-24 04:56:00,
2013-05-23 22:02:00,46.2,-3.6,26.10,SSE,163,0.0,0.0,12,0.00,,,-99.99,VWS V12.07,2013-05-24 05:02:00,
2013-05-23 22:08:00,45.5,-4.2,26.10,SSE,163,0.0,0.0,12,0.00,,,-99.99,VWS V12.07,2013-05-24 05:08:00,
2013-05-23 22:14:00,45.3,-4.4,26.10,SSE,163,0.0,0.0,12,0.00,,,-99.99,VWS V12.07,2013-05-24 05:14:00,
2013-05-23 22:20:00,45.1,-4.4,26.10,SSE,163,0.0,0.0,12,0.00,,,-99.99,VWS V12.07,2013-05-24 05:20:00,
2013-05-23 22:26:00,44.8,-4.7,26.10,SSE,163,0.0,0.0,12,0.00,,,-99.99,VWS V12.07,2013-05-24 05:26:00,
2013-05-23 22:32:00,44.6,-4.9,26.10,SSE,163,0.0,0.0,12,0.00,,,-99.99,VWS V12.07,2013-05-24 05:32:00,
2013-05-23 22:38:00,44.2,-5.2,26.10,SSE,163,0.0,0.0,12,0.00,,,-99.99,VWS V12.07,2013-05-24 05:38:00,
2013-05-23 22:44:00,44.2,-5.0,26.10,SSE,163,0.0,0.0,12,0.00,,,-99.99,VWS V12.07,2013-05-24 05:44:00,
2013-05-23 22:50:00,44.1,-5.4,26.10,SSE,163,0.0,0.0,12,0.00,,,-99.99,VWS V12.07,2013-05-24 05:50:00,
2013-05-23 22:56:00,43.3,-5.7,26.10,SSE,163,0.0,0.0,12,0.00,,,-99.99,VWS V12.07,2013-05-24 05:56:00,
2013-05-23 23:02:00,42.8,-6.3,26.10,SSE,163,0.0,0.0,12,0.00,,,-99.99,VWS V12.07,2013-05-24 06:02:00,
2013-05-23 23:08:00,42.6,-6.4,26.10,SSE,163,0.0,0.0,12,0.00,,,-99.99,VWS V12.07,2013-05-24 06:08:00,
2013-05-23 23:14:00,42.1,-6.7,26.10,SSE,163,0.0,0.0,12,0.00,,,-99.99,VWS V12.07,2013-05-24 06:14:00,
2013-05-23 23:20:00,42.1,-6.9,26.10,SSE,163,0.0,0.0,12,0.00,,,-99.99,VWS V12.07,2013-05-24 06:20:00,
2013-05-23 23:26:00,41.7,-7.1,26.10,SSE,163,0.0,0.0,12,0.00,,,-99.99,VWS V12.07,2013-05-24 06:26:00,
2013-05-23 23:32:00,41.4,-7.3,26.10,SSE,163,0.0,0.0,12,0.00,,,-99.99,VWS V12.07,2013-05-24 06:32:00,
2013-05-23 23:38:00,40.8,-7.7,26.10,SSE,163,0.0,0.0,12,0.00,,,-99.99,VWS V12.07,2013-05-24 06:38:00,
2013-05-23 23:44:00,40.6,-8.0,26.10,SSE,163,0.0,0.0,12,0.00,,,-99.99,VWS V12.07,2013-05-24 06:44:00,
2013-05-23 23:50:00,40.5,-8.1,26.10,SSE,163,0.0,0.0,12,0.00,,,-99.99,VWS V12.07,2013-05-24 06:50:00,
2013-05-23 23:56:00,40.3,-8.4,26.10,SSE,163,0.0,0.0,12,0.00,,,-99.99,VWS V12.07,2013-05-24 06:56:00,